Ergebnisliste vom: 26.11.2016 - Freiberger Adventslauf2016 - 6 km

weitere Ergebnisse >>

Platz Pl.m Pl.w Stnr. Name,Vorname Verein GJ AK Akm AKw Endzeit RŁckst.
1 1   319 Gering, Julian LG Vogtland 2 mU16 1   0:20:32 0:00:00
2 2   318 Temper, Erik LG Vogtland 98 mU20-59 1   0:20:34 0:00:02
3 3   438 Lebrini, Charkaoui Refugee Lauftreff 83 mU20-59 2   0:20:50 0:00:18
4 4   351 Lamzalzi, Abdeslam Refugee-Lauftreffs 83 mU20-59 3   0:21:03 0:00:31
5 5   270 Schurig, Toni Sportclub Riesa 96 mU20-59 4   0:21:13 0:00:41
6 6   268 Merkle, Stephan Post SV Dresden 87 mU20-59 5   0:21:24 0:00:52
7 7   290 Kinzel, Michael SG Motor Freital 84 mU20-59 6   0:21:34 0:01:02
8 8   298 Mala√üa, Fabian LSV Pirna 97 mU20-59 7   0:21:55 0:01:23
9   1 302 Pestel, Ellen TSV Fl√∂ha 1848   wU18   1 0:22:18 0:01:46
10   2 281 Schubert, Lisa SG Adelsberg 89 wU20-59   1 0:22:24 0:01:52
11 9   326 Richter, Rouven LV Limbach 2000 1 mU18 1   0:22:30 0:01:58
12 10   362 R√ľhle, Nico SC Riesa Triathlon   mU18 2   0:22:38 0:02:06
13 11   431 Klausnitzer, Silvio VS Pohrsdorf 82 mU20-59 8   0:22:40 0:02:08
14 12   436 Buschmann, Rico Pirna 71 mU20-59 9   0:22:49 0:02:17
15 13   267 Spank, Antonio Post SV Dresden 99 mU20-59 10   0:23:09 0:02:37
16 14   312 Summa, Justin TSG Schkeuditz 2 mU16 2   0:23:14 0:02:42
17 15   342 Beil, Christopher SV Handwerk Leipzig 87 mU20-59 11   0:23:19 0:02:47
18 16   248 Jurczek, Henry TSG Markkleeberg von 1903 1 mU18 3   0:23:21 0:02:49
19 17   246 Hegenberg, G√∂ran SV Tautenhain 1 mU18 4   0:23:22 0:02:50
20 18   352 Bensebban, Abdelhakim Refugee-Lauftreffs 91 mU20-59 12   0:23:30 0:02:58
21 19   274 Br√§uer, Dennis SV Lengefeld/Orientierungslauf 99 mU20-59 13   0:23:31 0:02:59
22 20   209 Jancker, Hans-Dieter SV Elbland Coswig-Mei√üen 52 M65-69 1   0:24:01 0:03:29
23 21   380 Sittner, Falk LG Ultralauf 81 mU20-59 14   0:24:05 0:03:33
24 22   421 B√∂hme, Kai LG Priestewitz 70 mU20-59 15   0:24:06 0:03:34
25 23   344 K√∂hler, J√∂rg Skiclub Frohburg/Lauftreff 69 mU20-59 16   0:24:12 0:03:40
26 24   300 B√§hr, Alexander LSV Pirna 2 mU16 3   0:24:32 0:04:00
27 25   406 Richter, Ronny Brand-Erbisdorf 70 mU20-59 17   0:24:36 0:04:04
28 26   222 B√∂hme, Benjamin Dresden   mU18 5   0:24:37 0:04:05
29 27   381 Viehweger, John TSV Elektronik Gornsdorf 2 mU16 4   0:24:39 0:04:07
30 28   266 Kerkel-Kotecki, Uwe   80 mU20-59 18   0:24:41 0:04:09
31   3 350 Schuberth, Sandra Refugee-Lauftreffs 88 wU20-59   2 0:24:45 0:04:13
32 29   422 Wittig, Kay Blau-Wei√ü Augustusberg 69 mU20-59 19   0:24:47 0:04:15
33 30   413 Wuttke, Rajko   69 mU20-59 20   0:24:51 0:04:19
34 31   288 Z√∂llner, Richard SG Motor Freital 98 mU20-59 21   0:25:02 0:04:30
35 32   250 Thieme, Thomas TSG Markkleeberg von 1903 56 M60-64 1   0:25:12 0:04:40
36 33   405 Tran, Tommy TV 92 Brand-Erbisdorf 2 mU16 5   0:25:15 0:04:43
37 34   301 Weller, Christopher LSV Pirna 3 mU16 6   0:25:21 0:04:49
38   4 275 H√§nsel, Hannah SV Lengefeld/Orientierungslauf   wU18   2 0:25:32 0:05:00
39 35   348 Trumann, Ole Refugee-Lauftreffs 97 mU20-59 22   0:25:35 0:05:03
40   5 260 L√∂tzsch, Annika Frohburger Lauftreff   wU18   3 0:25:39 0:05:07
41   6 426 Laveatz, Doreen DSC 1898 79 wU20-59   3 0:25:45 0:05:13
42 36   408 H√ľbler, Moritz FSV Fortuna Langenau 1 mU18 6   0:25:51 0:05:19
43 37   411 Jobst, Pascal SC Riesa Triathlon 3 mU16 7   0:25:52 0:05:20
44 38   273 Br√§uer, Enrico SV Lengefeld/Orientierungslauf 72 mU20-59 23   0:26:05 0:05:33
45 39   439 Krumbiegel, Felix   98 mU20-59 24   0:26:22 0:05:50
46   7 420 Golbs, Marlene LG TuS Weinb√∂hla 2 wU16   1 0:26:29 0:05:57
47 40   333 Bauer, Heiko SV Remse Radsport 67 mU20-59 25   0:26:33 0:06:01
48 41   272 Seeger, Dennis LSV 99 Hartha 2 mU16 8   0:26:36 0:06:04
49 42   435 Lang, Andreas LB Schwarzenberg 74 mU20-59 26   0:26:37 0:06:05
50 43   289 Wohsmann, Benjamin SG Motor Freital 98 mU20-59 27   0:26:40 0:06:08
51 44   434 Baldauf, Matthias Druckluft Technik Chemnitz 77 mU20-59 28   0:26:41 0:06:09
52 45   382 Viehweger, Steve TSV Elektronik Gornsdorf 71 mU20-59 29   0:26:44 0:06:12
53 46   231 Martschink, Marcel Rennschnecken Mittweida 2 mU16 9   0:26:49 0:06:17
54 47   304 Pestel, Jan TSV Fl√∂ha 1848 65 mU20-59 30   0:26:51 0:06:19
55 48   424 M√ľhler, Tobias Team Accomplast 82 mU20-59 31   0:26:55 0:06:23
56 49   337 Bilz, Tino Bobritzsch 67 mU20-59 32   0:26:58 0:06:26
57 50   335 Mann, Daniel FUN-22.DE 76 mU20-59 33   0:27:03 0:06:31
58 51   327 Bachmann, Marvin LV Limbach 2000 1 mU18 7   0:27:06 0:06:34
59 52   412 Liebscher, Jan   69 mU20-59 34   0:27:18 0:06:46
60   8 282 Schenk, Liesbeth HSV Wernigerode 2002 Abt. Triathlon 97 wU20-59   4 0:27:26 0:06:54
61   9 400 Seidel, Lucia-Therese   98 wU20-59   5 0:27:28 0:06:56
62 53   247 Lobin, Ulrich Bergstadt Freiberg 47 M70-74 1   0:27:33 0:07:01
63 54   375 Reimann, Sebastian ASV Alte Elisabeth 90 mU20-59 35   0:27:36 0:07:04
64 55   389 Winkler, Max TSG Oederan 2 mU16 10   0:27:43 0:07:11
65 56   269 G√∂bel, Martin Lok Hainsberg 97 mU20-59 36   0:27:44 0:07:12
66 57   263 Boden, Patrick OSSV Kamenz 90 mU20-59 37   0:27:45 0:07:13
67 58   341 R√ľhle, Frank Lichtensee 71 mU20-59 38   0:27:46 0:07:14
68 59   428 Schulze, Kai Sportgruppe Liebsch 70 mU20-59 39   0:27:47 0:07:15
69 60   237 Hensel, Carsten SV Burkhardtsgr√ľn 62 mU20-59 40   0:27:48 0:07:16
70 61   284 Beier, Marcel SG Motor Freital 3 mU16 11   0:27:50 0:07:18
71   10 410 Schr√∂der, Emily Sportclub Riesa Triathlon 3 wU16   2 0:27:51 0:07:19
72   11 430 Quaschning, Jaqueline LV Gera 66 wU20-59   6 0:27:55 0:07:23
73 62   414 Wei√übach, Martin EMC Witzschdorf / KTM Sturm 91 mU20-59 41   0:27:58 0:07:26
74 63   437 Luckenbach, Till SC Freiburg 70 mU20-59 42   0:28:00 0:07:28
75   12 255 H√§rder, Marie TSV Medizin Wechselburg 3 wU16   3 0:28:01 0:07:29
76 64   306 Henker, Jan Gleitschirmflieger Dresden 80 mU20-59 43   0:28:02 0:07:30
77 65   403 Herrmann, Steve   84 mU20-59 44   0:28:03 0:07:31
78   13 243 Honscha, Gabriele SV Automation 61 Leipzig 2 wU16   4 0:28:05 0:07:33
79 66   354 Khaitou, Mohammad Refugee-Lauftreffs 96 mU20-59 45   0:28:11 0:07:39
80 67   259 L√∂tzsch, Benny Frohburger Lauftreff 74 mU20-59 46   0:28:12 0:07:40
81 68   234 Zieger, Rene   82 mU20-59 47   0:28:29 0:07:57
82 69   210 Fleischer, Toni Laufen mit Freunden 84 mU20-59 48   0:28:35 0:08:03
83 70   253 Dobritz, Ralf Freil√§ufer Freiberg 66 mU20-59 49   0:28:40 0:08:08
84   14 377 Henkel, Beate TSV Einheit Grimma 54 W60-64   1 0:28:47 0:08:15
85 71   242 Fernbach, J√∂rg Radeberger SV 50 M65-69 2   0:28:48 0:08:16
86 72   292 Kohser, Wolfram SG Wei√üig 1861 60 mU20-59 50   0:28:55 0:08:23
87 73   376 Bergmann, Dietmar RC 1898 Radeberg 44 M70-74 2   0:28:57 0:08:25
88 74   227 Schneider, Reinhold Rennschnecken Mittweida 55 M60-64 2   0:29:01 0:08:29
89 75   398 Schmidt, Maximilian Ilsenburg 91 mU20-59 51   0:29:04 0:08:32
90 76   277 Vater, Paul   95 mU20-59 52   0:29:08 0:08:36
91 77   233 Knorr, Joachim SV Vorw√§rts Zwickau 40 M75-79 1   0:29:14 0:08:42
92   15 291 Just, Katrin SG Wei√üig 1861 66 wU20-59   7 0:29:16 0:08:44
93   16 355 Kaminski, Maja SV Handwerk Leipzig 88 wU20-59   8 0:29:25 0:08:53
94   17 305 H√§rtig, Ina TSV Fl√∂ha 1848 72 wU20-59   9 0:29:32 0:09:00
95   18 343 D√∂ring, Sophie Laufteam TU Freiberg 98 wU20-59   10 0:29:35 0:09:03
96   19 384 Maier, Nadya TSV Elektronik Gornsdorf 2 wU16   5 0:29:36 0:09:04
97   20 372 Bornkampf, Constanze Freil√§ufer FG 78 wU20-59   11 0:29:37 0:09:05
98   21 399 Seidel, Loren   97 wU20-59   12 0:29:42 0:09:10
99   22 226 Weigel, Ursula LG Thalheim 56 W60-64   2 0:29:44 0:09:12
100 78   325 Bauer, Heinz LV Limbach 2000 43 M70-74 3   0:29:47 0:09:15
101 79   378 N√∂nnig, J√ľrgen SV Wacker Mohorn 47 M70-74 4   0:29:53 0:09:21
102 80   425 M√ľhler, Rainer   53 M60-64 3   0:29:54 0:09:22
103 81   276 Vater, Uwe   61 mU20-59 53   0:30:00 0:09:28
104   23 224 Behrisch, Jacobine Oberschule 3 wU16   6 0:30:01 0:09:29
104 82   225 Behrisch, Siegmar Radeburg 53 M60-64 4   0:30:01 0:09:29
106 83   206 Wolf, Alexander Laufen mit Freunden 84 mU20-59 54   0:30:06 0:09:34
107 84   386 Schimpke, Ronny SV Rotation Wei√üenborn 84 mU20-59 55   0:30:09 0:09:37
108 85   401 Mallack, Jens SV M√ľhlbach 72 mU20-59 56   0:30:10 0:09:38
109   24 208 Hiss, Stephanie   90 wU20-59   13 0:30:11 0:09:39
109   24 379 Rauft, Peggy Autoteile Weinhold Freiberg 72 wU20-59   13 0:30:11 0:09:39
111   26 332 Wagner, Anja   79 wU20-59   15 0:30:35 0:10:03
112 86   383 Kempe, Matthias   62 mU20-59 57   0:30:36 0:10:04
113 87   254 Kn√ľpfer, Peter TSV Medizin Wechselburg 1 mU18 8   0:30:40 0:10:08
114   27 334 Sturm, Karina FUN-22.DE 77 wU20-59   16 0:30:42 0:10:10
115   28 236 Viehweger, Lydia L√§uferbund Schwarzenberg 84 wU20-59   17 0:30:44 0:10:12
116   29 358 Gola, Christiane Freil√§ufer Freiberg 67 wU20-59   18 0:30:45 0:10:13
117   30 283 Hubricht, Evelyn Stramme Haxen aus Mittelsachsen 70 wU20-59   19 0:30:49 0:10:17
118   31 330 Steinert, Christin LV Limbach 2000 2 wU16   7 0:30:53 0:10:21
119 88   214 Barth, Rainer SC Freiburg 83 mU20-59 58   0:30:54 0:10:22
120 89   320 Schubert, Vincenzo Gro√üschirma 6 mU16 12   0:31:03 0:10:31
121   32 321 Schubert, Eileen Gro√üschirma 81 wU20-59   20 0:31:06 0:10:34
122   33 427 Laveatz, Monika Citylaufverein Dresden 55 W60-64   3 0:31:17 0:10:45
123   34 258 L√∂tzsch, Sandra Frohburger Lauftreff 72 wU20-59   21 0:31:21 0:10:49
124   35 287 Feierle, Katharina SG Motor Freital 99 wU20-59   22 0:31:32 0:11:00
124   35 322 Marxen, Christina Go Girl 70 wU20-59   22 0:31:32 0:11:00
126   37 303 Pestel, Birgit TSV Fl√∂ha 1848 69 wU20-59   24 0:31:36 0:11:04
127   38 340 R√ľhle, Ivonne Lichtensee 71 wU20-59   25 0:31:40 0:11:08
128   39 328 Keinert, Denise LV Limbach 2000 2 wU16   8 0:31:41 0:11:09
129   40 293 Bretschneider, Anna privat 1 wU18   4 0:31:42 0:11:10
130 90   415 Wei√übach, Daniel EMC Witzschdorf / KTM Sturm 89 mU20-59 59   0:31:43 0:11:11
131 91   394 Zilliken, Dominik   86 mU20-59 60   0:31:49 0:11:17
132 92   316 Birndt, Mirko   80 mU20-59 61   0:31:58 0:11:26
133 93   429 Yao, Shanghong   91 mU20-59 62   0:32:00 0:11:28
134   41 310 Plate, Lara Freiberger PSV 99 wU20-59   26 0:32:02 0:11:30
135 94   217 Eberlein, Klaus SSV 91 Brand-Erbisdorf 41 M75-79 2   0:32:07 0:11:35
136 95   223 Heinicke, Wallfried Oschatz / Thalheim 49 M65-69 3   0:32:18 0:11:46
137 96   374 Kempe, Moritz Sportscheune Weigmannsdorf 2 mU16 13   0:32:40 0:12:08
138 97   373 Kempe, Sven   71 mU20-59 63   0:32:41 0:12:09
139   42 220 Silabetzschky-Vogel, Gaby WSG Schwarzenberg-Wildenau 57 W60-64   4 0:32:49 0:12:17
140   43 218 Palfi, Edelgard Citylauf-Verein Dresden 52 W65-69   1 0:32:59 0:12:27
141   44 207 Erler, Sabrina   95 wU20-59   27 0:33:18 0:12:46
142   45 285 Sch√ľttauf, Elisabeth SG Motor Freital 3 wU16   9 0:33:19 0:12:47
143 98   230 Zosel, Armin TSV1862 Radeburg 34 M80-84 1   0:33:29 0:12:57
144 99   245 Th√ľmmler, J√∂rg Freiberger PSV 63 mU20-59 64   0:33:37 0:13:05
145   46 262 Apelmeier, Sophie USV Dresden 90 wU20-59   28 0:33:38 0:13:06
146   47 212 Caceres, Alisa   93 wU20-59   29 0:33:54 0:13:22
147   48 419 Trommler, Nicole   88 wU20-59   30 0:33:57 0:13:25
148   49 278 Sch√∂nlebe, Grit Stramme Haxen aus Mittelsachsen 68 wU20-59   31 0:34:02 0:13:30
149   50 235 Lobin, Julia   86 wU20-59   32 0:34:06 0:13:34
150 100   221 Dummis, Rico SV Lichtenberg 76 mU20-59 65   0:34:08 0:13:36
151 101   339 Gottschalk, Matthias Triathlon privat 58 mU20-59 66   0:34:18 0:13:46
152   51 417 Frohs, Ramona Freiberg 64 wU20-59   33 0:34:22 0:13:50
153   52 308 Junghans, Lea VVF 1 wU18   5 0:34:36 0:14:04
154   53 309 Junghans, Vicky Hilbersdorfer Sportverein 85 wU20-59   34 0:34:38 0:14:06
155 102   280 Fankh√§nel, Werner LG Vogtland 41 M75-79 3   0:34:39 0:14:07
156   54 279 Hendricks-Frenkel, Lelia Friedewald 78 wU20-59   35 0:34:47 0:14:15
157 103   397 M√ľller, J√ľrgen LG Geyer 42 M75-79 4   0:34:50 0:14:18
158 104   205 Reichel, Martin Laufen mit Freunden 84 mU20-59 67   0:34:55 0:14:23
159 105   215 Dahten, Marc Kevin Team Erdinger Alkoholfrei 99 mU20-59 68   0:35:12 0:14:40
159   55 216 Papendick, Christina Freiberg   wU18   6 0:35:12 0:14:40
161   56 392 Sch√∂nherr, Steffi   61 wU20-59   36 0:35:19 0:14:47
162   57 244 Th√ľmmler, Katrin Freiberger PSV 65 wU20-59   37 0:35:24 0:14:52
163   58 329 Fache, Marie LV Limbach 2000   wU18   7 0:35:27 0:14:55
164   59 240 Meyer, Steffi   89 wU20-59   38 0:35:28 0:14:56
165 106   385 Bernstein, Helmut Hetzdorfer SV1990 60 mU20-59 69   0:35:30 0:14:58
166   60 317 Mantey, Danuta   50 W65-69   2 0:35:31 0:14:59
167 107   418 Hercht, karl-Heinz Zschopau 40 M75-79 5   0:35:37 0:15:05
168 108   251 Schumann, Uwe Stil vor Talent 74 mU20-59 70   0:35:55 0:15:23
168   61 252 Lindner, Suzie Stil vor Talent 81 wU20-59   39 0:35:55 0:15:23
170   62 353 Fehle, Steffi Refugee-Lauftreffs 86 wU20-59   40 0:36:08 0:15:36
171 109   219 Wachsmann, J√∂rg Rennschnecken Mittweida 46 M70-74 5   0:36:12 0:15:40
172 110   423 M√ľller, Ulf ESV Lok Freiberg 50 M65-69 4   0:36:14 0:15:42
173   63 440 Feder, Anja VLH 81 wU20-59   41 0:36:36 0:16:04
174 111   229 Klietsch, Philipp SKSV Mittweida 3 mU16 14   0:36:37 0:16:05
175 112   239 H√∂fgen, Hans SG Oberlichtenau 37 M80-84 2   0:36:57 0:16:25
176 113   360 Zosel¬†¬†¬†¬†¬†¬†, Hans OSC L√∂bau 39 M75-79 6   0:36:59 0:16:27
177   64 409 Pszonka, Joanna   81 wU20-59   42 0:37:05 0:16:33
178   65 314 Schreiter, Marie   87 wU20-59   43 0:37:07 0:16:35
179   66 315 Sch√∂nherr, Luise   87 wU20-59   44 0:37:16 0:16:44
180   67 391 H√ľbler, Teresa   81 wU20-59   45 0:38:15 0:17:43
181   68 228 Erler, Manuela   63 wU20-59   46 0:38:19 0:17:47
182   69 203 Sonneson, Angela Hetz runners 64 wU20-59   47 0:38:29 0:17:57
183 114   432 Linke, Philipp   7 mU16 15   0:38:31 0:17:59
184 115   264 H√∂rhold, Klaus TSV 1893 Leipzig-Wahren 43 M70-74 6   0:38:35 0:18:03
185   70 331 Holtk√∂tter, Katharina   91 wU20-59   48 0:38:39 0:18:07
186   71 396 G√∂thel, Heidrun SV 1870 Gro√üolbersdorf 51 W65-69   3 0:39:04 0:18:32
187   72 402 Z√∂rnweg, Constanze Racing Team Z√∂rnweg 80 wU20-59   49 0:39:13 0:18:41
188 116   359 Schindler, Hartmut OSC L√∂bau 45 M70-74 7   0:39:20 0:18:48
189   73 395 Kim, Jueun   83 wU20-59   50 0:39:41 0:19:09
190   74 345 Kauba, Mandy   86 wU20-59   51 0:39:42 0:19:10
191   75 271 Moser, Nathalie SV Mulda 1879 1 wU18   8 0:39:43 0:19:11
192 117   346 Jurk, Daniel   82 mU20-59 71   0:39:48 0:19:16
193   76 313 Lippmann, Michaela Kreiskrankenhaus Freiberg 74 wU20-59   52 0:39:54 0:19:22
194   77 261 Clausnitzer, Nora Zschopau 91 wU20-59   53 0:40:02 0:19:30
195   78 294 Stegmann, Katja   71 wU20-59   54 0:40:18 0:19:46
196 118   433 Mukaskev, Tair   92 mU20-59 72   0:41:15 0:20:43
197   79 241 Harz, Birgit Citylauf-Verein Dresden 44 W70-74   1 0:41:28 0:20:56
198   80 356 P√ľschmann, Karin Limbach Oberfrohna 54 W60-64   5 0:43:28 0:22:56
199   81 265 H√∂rhold, Marion TSV 1893 Leipzig-Wahren 48 W65-69   4 0:43:55 0:23:23
200   82 404 Feder, Ramona Meissen 61 wU20-59   55 0:45:24 0:24:52
201 119   232 Wagner/ Dr., Harald Lok Hainsberg 34 M80-84 3   0:48:13 0:27:41
202 120   338 Beyer, Gunther TSV Einheit Grimma 34 M80-84 4   0:59:59 0:39:27
(c) 1990-2020 Blue Wonder Sport Promotion - Andreas Burow - Zeitnahme & Auswertung - www.Triathlon-Service.de